Aviation Digital Data Service (ADDS)

Output produced by METARs form (1457 UTC 31 October 2014)
found at http://aviationweather.gov/adds/metars/
 
KARA 311453Z 35010KT 10SM CLR 20/09 A3011 RMK AO2 SLP195 T02000094 51011